Time;durP1;ratioP1;P1;durP2;ratioP2;P2;SDS_P1;SDS_P2;PMS_P1;PMS_P2;Temp;Humidity;BMP_temperature;BMP_pressure;BME280_temperature;BME280_humidity;BME280_pressure;Samples;Min_cycle;Max_cycle;Signal;HPM_P1;HPM_P2
2024/03/18 00:00:27;;;;;;;2.78;2.55;;;9.10;99.90;;;;;;5028220;28;20210;-73
2024/03/18 00:02:53;;;;;;;4.78;3.20;;;9.10;99.90;;;;;;5020149;28;20627;-73
2024/03/18 00:05:21;;;;;;;3.40;3.10;;;9.10;99.90;;;;;;5028356;28;20582;-73
2024/03/18 00:07:50;;;;;;;3.92;3.20;;;9.10;99.90;;;;;;5028077;28;20201;-73
2024/03/18 00:10:18;;;;;;;4.05;3.55;;;9.10;99.90;;;;;;5027842;28;20233;-73
2024/03/18 00:12:46;;;;;;;3.95;3.60;;;9.10;99.90;;;;;;5032896;28;20229;-73
2024/03/18 00:15:14;;;;;;;4.40;3.92;;;9.10;99.90;;;;;;5028216;28;20286;-73
2024/03/18 00:17:42;;;;;;;3.80;2.88;;;9.10;99.90;;;;;;5027965;28;20221;-73
2024/03/18 00:20:10;;;;;;;5.72;3.97;;;9.10;99.90;;;;;;5028001;28;20213;-73
2024/03/18 00:22:37;;;;;;;3.80;3.28;;;9.10;99.90;;;;;;5021432;28;20229;-73
2024/03/18 00:25:05;;;;;;;3.88;2.88;;;9.10;99.90;;;;;;5027922;28;20304;-73
2024/03/18 00:27:32;;;;;;;3.47;3.17;;;9.10;99.90;;;;;;5023136;28;20241;-73
2024/03/18 00:30:00;;;;;;;6.70;3.92;;;9.10;99.90;;;;;;5027644;28;20678;-73
2024/03/18 00:32:29;;;;;;;6.30;4.20;;;9.10;99.90;;;;;;5021962;28;20233;-72
2024/03/18 00:34:56;;;;;;;4.32;3.28;;;9.10;99.90;;;;;;5020073;28;20247;-73
2024/03/18 00:37:23;;;;;;;3.85;3.50;;;9.00;99.90;;;;;;5027781;28;20212;-73
2024/03/18 00:39:50;;;;;;;3.80;3.15;;;9.00;99.90;;;;;;5027276;28;20648;-73
2024/03/18 00:42:16;;;;;;;4.43;3.15;;;9.00;99.90;;;;;;5027512;28;20235;-73
2024/03/18 00:44:43;;;;;;;3.20;2.70;;;9.00;99.90;;;;;;5027699;28;20248;-73
2024/03/18 00:47:12;;;;;;;7.55;3.13;;;9.00;99.90;;;;;;5028031;28;20202;-73
2024/03/18 00:49:39;;;;;;;3.40;3.10;;;9.00;99.90;;;;;;5027277;28;20202;-72
2024/03/18 00:52:05;;;;;;;3.03;2.65;;;9.00;99.90;;;;;;5027304;28;20747;-73
2024/03/18 00:54:32;;;;;;;3.08;2.78;;;9.10;99.90;;;;;;5027218;28;20321;-73
2024/03/18 00:56:59;;;;;;;6.57;3.17;;;9.10;99.90;;;;;;5027689;28;20235;-73
2024/03/18 00:59:25;;;;;;;3.28;2.75;;;9.00;99.90;;;;;;5027322;28;20601;-73
2024/03/18 01:01:52;;;;;;;3.15;2.63;;;9.00;99.90;;;;;;5027040;28;20244;-73
2024/03/18 01:04:20;;;;;;;3.42;3.13;;;8.90;99.90;;;;;;5024709;28;20205;-73
2024/03/18 01:06:47;;;;;;;3.83;3.20;;;9.00;99.90;;;;;;5026854;28;20210;-73
2024/03/18 01:09:16;;;;;;;3.80;3.05;;;9.00;99.90;;;;;;5031660;28;20208;-73
2024/03/18 01:11:43;;;;;;;4.20;2.80;;;9.00;99.90;;;;;;5024831;28;20647;-73
2024/03/18 01:14:09;;;;;;;2.85;2.65;;;9.00;99.90;;;;;;5030299;28;20235;-73
2024/03/18 01:16:36;;;;;;;6.45;3.30;;;9.00;99.90;;;;;;5029118;28;20212;-73
2024/03/18 01:19:03;;;;;;;4.13;2.88;;;9.00;99.90;;;;;;5029652;28;20218;-73
2024/03/18 01:21:31;;;;;;;3.63;3.33;;;8.90;99.90;;;;;;5029191;28;20238;-73
2024/03/18 01:23:57;;;;;;;4.45;3.10;;;8.90;99.90;;;;;;5030005;28;20209;-72
2024/03/18 01:26:23;;;;;;;5.45;3.60;;;8.90;99.90;;;;;;5029782;28;20217;-73
2024/03/18 01:28:50;;;;;;;2.90;2.70;;;8.90;99.90;;;;;;5030763;28;20211;-72
2024/03/18 01:31:18;;;;;;;4.40;3.95;;;8.90;99.90;;;;;;5030827;28;20595;-73
2024/03/18 01:33:46;;;;;;;2.95;2.65;;;8.90;99.90;;;;;;5029959;28;20284;-73
2024/03/18 01:36:12;;;;;;;5.28;3.05;;;8.90;99.90;;;;;;5031317;28;20212;-73
2024/03/18 01:38:42;;;;;;;4.97;3.65;;;8.90;99.90;;;;;;5030715;28;20240;-73
2024/03/18 01:41:08;;;;;;;2.90;2.70;;;8.90;99.90;;;;;;5030649;28;20224;-73
2024/03/18 01:43:37;;;;;;;5.95;3.42;;;8.80;99.90;;;;;;5031000;28;20679;-73
2024/03/18 01:46:13;;;;;;;5.60;3.58;;;8.90;99.90;;;;;;5032527;28;20592;-73
2024/03/18 01:48:40;;;;;;;3.28;2.97;;;8.80;99.90;;;;;;5031568;28;20209;-73
2024/03/18 01:51:09;;;;;;;3.47;3.03;;;8.90;99.90;;;;;;5033422;28;20209;-73
2024/03/18 01:53:37;;;;;;;3.85;3.33;;;8.80;99.90;;;;;;5033570;28;20223;-72
2024/03/18 01:56:09;;;;;;;4.60;3.10;;;8.90;99.90;;;;;;5033943;28;20213;-73
2024/03/18 01:58:36;;;;;;;4.00;3.40;;;8.90;99.90;;;;;;5033514;28;20228;-72
2024/03/18 02:01:03;;;;;;;3.83;3.25;;;8.80;99.90;;;;;;5033095;28;20212;-72
2024/03/18 02:03:29;;;;;;;4.18;3.30;;;8.80;99.90;;;;;;5033511;28;20683;-72
2024/03/18 02:05:56;;;;;;;3.72;3.17;;;8.80;99.90;;;;;;5033667;28;20623;-73
2024/03/18 02:08:23;;;;;;;3.85;3.17;;;8.80;99.90;;;;;;5033507;28;20219;-72
2024/03/18 02:10:50;;;;;;;3.50;3.20;;;8.90;99.90;;;;;;5033178;28;20237;-73
2024/03/18 02:13:18;;;;;;;3.50;2.85;;;8.80;99.90;;;;;;5033207;28;20273;-72
2024/03/18 02:15:45;;;;;;;3.20;2.83;;;8.90;99.90;;;;;;5033161;28;20198;-73
2024/03/18 02:18:11;;;;;;;3.80;3.25;;;8.90;99.90;;;;;;5033127;28;20588;-73
2024/03/18 02:20:38;;;;;;;5.68;3.50;;;8.90;99.90;;;;;;5032816;28;20215;-72
2024/03/18 02:23:07;;;;;;;5.97;3.40;;;8.90;99.90;;;;;;5033185;28;20299;-73
2024/03/18 02:25:34;;;;;;;5.82;3.40;;;8.90;99.90;;;;;;5033140;28;20626;-73
2024/03/18 02:28:00;;;;;;;3.38;2.70;;;8.90;99.90;;;;;;5033269;28;20202;-73
2024/03/18 02:30:27;;;;;;;4.95;3.58;;;8.90;99.90;;;;;;5033101;28;20213;-73
2024/03/18 02:32:54;;;;;;;4.95;3.63;;;8.90;99.90;;;;;;5024668;28;20240;-73
2024/03/18 02:35:20;;;;;;;4.43;3.63;;;8.90;99.90;;;;;;5033166;28;20217;-72
2024/03/18 02:37:47;;;;;;;3.30;3.00;;;8.90;99.90;;;;;;5032758;28;20198;-72
2024/03/18 02:40:15;;;;;;;4.43;2.90;;;8.80;99.90;;;;;;5032979;28;20863;-73
2024/03/18 02:42:42;;;;;;;5.18;4.10;;;8.80;99.90;;;;;;5032664;28;20703;-73
2024/03/18 02:45:11;;;;;;;4.13;3.60;;;8.80;99.90;;;;;;5033091;28;20626;-73
2024/03/18 02:47:38;;;;;;;4.55;4.15;;;8.80;99.90;;;;;;5032864;28;20212;-72
2024/03/18 02:50:05;;;;;;;4.03;3.63;;;8.80;99.90;;;;;;5032548;28;20201;-73
2024/03/18 02:52:33;;;;;;;7.38;4.00;;;8.80;99.90;;;;;;5032317;28;20230;-73
2024/03/18 02:55:00;;;;;;;3.97;3.15;;;8.80;99.90;;;;;;5032897;28;20264;-73
2024/03/18 02:57:28;;;;;;;3.45;3.15;;;8.80;99.90;;;;;;5032663;28;20703;-73
2024/03/18 02:59:56;;;;;;;6.03;4.10;;;8.80;99.90;;;;;;5024329;28;20236;-73
2024/03/18 03:02:23;;;;;;;3.53;3.22;;;8.80;99.90;;;;;;5032633;28;20647;-73
2024/03/18 03:04:50;;;;;;;2.85;2.60;;;8.80;99.90;;;;;;5032420;28;20670;-73
2024/03/18 03:07:16;;;;;;;5.03;2.97;;;8.80;99.90;;;;;;5032793;28;20615;-73
2024/03/18 03:09:43;;;;;;;3.13;2.38;;;8.80;99.90;;;;;;5032345;28;20577;-73
2024/03/18 03:12:10;;;;;;;4.25;3.20;;;8.80;99.90;;;;;;5032390;28;20233;-73
2024/03/18 03:14:41;;;;;;;3.58;3.28;;;8.80;99.90;;;;;;5032270;28;20209;-73
2024/03/18 03:17:07;;;;;;;5.38;4.07;;;8.80;99.90;;;;;;5032493;28;20210;-73
2024/03/18 03:19:34;;;;;;;3.42;3.05;;;8.80;99.90;;;;;;5031561;28;20232;-72
2024/03/18 03:22:01;;;;;;;3.78;3.22;;;8.80;99.90;;;;;;5031866;28;20645;-73
2024/03/18 03:24:28;;;;;;;2.85;2.58;;;8.80;99.90;;;;;;5032285;28;20303;-73
2024/03/18 03:26:56;;;;;;;4.57;2.80;;;8.80;99.90;;;;;;5024058;28;20209;-73
2024/03/18 03:29:22;;;;;;;4.97;3.50;;;8.80;99.90;;;;;;5031289;28;20263;-72
2024/03/18 03:31:50;;;;;;;3.28;2.97;;;8.80;99.90;;;;;;5031587;28;20659;-73
2024/03/18 03:34:17;;;;;;;3.72;3.42;;;8.80;99.90;;;;;;5032781;28;20206;-73
2024/03/18 03:36:44;;;;;;;3.65;3.35;;;8.80;99.90;;;;;;5031746;28;20203;-73
2024/03/18 03:39:11;;;;;;;3.63;3.00;;;8.80;99.90;;;;;;5031842;28;20233;-73
2024/03/18 03:41:37;;;;;;;2.63;2.42;;;8.90;99.90;;;;;;5030993;28;20229;-73
2024/03/18 03:44:05;;;;;;;4.45;3.60;;;8.90;99.90;;;;;;5032056;28;20208;-73
2024/03/18 03:46:34;;;;;;;4.65;3.53;;;8.80;99.90;;;;;;5031863;28;20234;-73
2024/03/18 03:49:03;;;;;;;3.10;2.85;;;8.80;99.90;;;;;;5031632;28;20197;-73
2024/03/18 03:51:30;;;;;;;4.15;3.75;;;8.90;99.90;;;;;;5031071;28;20222;-72
2024/03/18 03:53:57;;;;;;;2.92;2.65;;;8.80;99.90;;;;;;5023411;28;20209;-73
2024/03/18 03:56:24;;;;;;;3.88;3.50;;;8.90;99.90;;;;;;5028689;28;20209;-73
2024/03/18 03:58:52;;;;;;;4.05;3.30;;;8.80;99.90;;;;;;5025483;28;20210;-72
2024/03/18 04:01:19;;;;;;;4.22;3.10;;;8.80;99.90;;;;;;5022730;28;20225;-72
2024/03/18 04:03:46;;;;;;;4.55;3.20;;;8.70;99.90;;;;;;5028957;28;20656;-72
2024/03/18 04:06:14;;;;;;;4.13;3.67;;;8.70;99.90;;;;;;5028039;28;20213;-72
2024/03/18 04:08:40;;;;;;;3.65;3.17;;;8.80;99.90;;;;;;5025066;28;20579;-72
2024/03/18 04:11:07;;;;;;;5.78;3.55;;;8.70;99.90;;;;;;5029744;28;20193;-72
2024/03/18 04:13:34;;;;;;;3.30;3.00;;;8.70;99.90;;;;;;5030584;28;20284;-71
2024/03/18 04:16:01;;;;;;;3.47;3.17;;;8.70;99.90;;;;;;5031343;28;20205;-72
2024/03/18 04:18:28;;;;;;;4.15;3.42;;;8.80;99.90;;;;;;5031264;28;20708;-72
2024/03/18 04:20:54;;;;;;;4.13;2.97;;;8.70;99.90;;;;;;5022502;28;20239;-72
2024/03/18 04:23:22;;;;;;;3.45;2.70;;;8.70;99.90;;;;;;5030863;28;20224;-72
2024/03/18 04:25:49;;;;;;;4.00;3.63;;;8.60;99.90;;;;;;5030835;28;20209;-73
2024/03/18 04:28:16;;;;;;;6.93;3.22;;;8.70;99.90;;;;;;5031094;28;20214;-73
2024/03/18 04:30:43;;;;;;;4.05;3.65;;;8.70;99.90;;;;;;5030493;28;20279;-73
2024/03/18 04:33:10;;;;;;;4.03;3.30;;;8.70;99.90;;;;;;5030797;28;20224;-73
2024/03/18 04:35:36;;;;;;;5.50;4.25;;;8.70;99.90;;;;;;5022958;28;20206;-71
2024/03/18 04:38:03;;;;;;;3.30;3.00;;;8.70;99.90;;;;;;5028428;28;20209;-71
2024/03/18 04:40:32;;;;;;;3.45;3.10;;;8.70;99.90;;;;;;5029312;28;20747;-71
2024/03/18 04:42:59;;;;;;;4.90;3.25;;;8.70;99.90;;;;;;5029286;28;20709;-70
2024/03/18 04:45:26;;;;;;;3.78;3.08;;;8.70;99.90;;;;;;5030925;28;20700;-71
2024/03/18 04:47:54;;;;;;;3.58;3.28;;;8.70;99.90;;;;;;5030421;28;20741;-71
2024/03/18 04:50:22;;;;;;;4.30;3.65;;;8.70;99.90;;;;;;5030598;28;20205;-71
2024/03/18 04:52:49;;;;;;;4.28;3.47;;;8.70;99.90;;;;;;5029836;28;20245;-71
2024/03/18 04:55:17;;;;;;;4.18;3.17;;;8.70;99.90;;;;;;5030914;28;20204;-71
2024/03/18 04:57:45;;;;;;;3.88;3.22;;;8.80;99.90;;;;;;5030571;28;20215;-71
2024/03/18 05:00:16;;;;;;;4.35;3.08;;;8.80;99.90;;;;;;5030484;28;20225;-70
2024/03/18 05:02:43;;;;;;;3.80;3.40;;;8.80;99.90;;;;;;5029996;28;20235;-71
2024/03/18 05:05:12;;;;;;;4.03;3.60;;;8.80;99.90;;;;;;5030877;28;20217;-71
2024/03/18 05:07:38;;;;;;;8.02;3.70;;;8.80;99.90;;;;;;5030378;28;20232;-71
2024/03/18 05:10:06;;;;;;;3.50;2.88;;;8.80;99.90;;;;;;5030417;28;20201;-71
2024/03/18 05:12:33;;;;;;;5.40;3.22;;;8.80;99.90;;;;;;5030013;28;20222;-71
2024/03/18 05:15:02;;;;;;;4.15;3.45;;;8.80;99.90;;;;;;5030297;28;20293;-71
2024/03/18 05:17:29;;;;;;;5.53;3.10;;;8.80;99.90;;;;;;5030507;28;20667;-71
2024/03/18 05:19:56;;;;;;;4.85;2.83;;;8.80;99.90;;;;;;5029777;28;20228;-71
2024/03/18 05:22:23;;;;;;;3.97;3.17;;;8.80;99.90;;;;;;5030201;28;20742;-71
2024/03/18 05:24:50;;;;;;;4.75;3.80;;;8.80;99.90;;;;;;5030190;28;20221;-71
2024/03/18 05:27:17;;;;;;;4.95;3.80;;;8.80;99.90;;;;;;5030694;28;20694;-71
2024/03/18 05:29:45;;;;;;;3.30;2.80;;;8.80;99.90;;;;;;5030002;28;20202;-71
2024/03/18 05:32:15;;;;;;;3.75;3.45;;;8.80;99.90;;;;;;5029993;28;20255;-71
2024/03/18 05:34:42;;;;;;;7.65;3.45;;;8.70;99.90;;;;;;5031933;28;20730;-71
2024/03/18 05:37:10;;;;;;;2.95;2.75;;;8.70;99.90;;;;;;5030552;28;20208;-71
2024/03/18 05:39:37;;;;;;;3.70;3.40;;;8.70;99.90;;;;;;5029989;28;20232;-71
2024/03/18 05:42:04;;;;;;;4.85;3.50;;;8.70;99.90;;;;;;5029624;28;20232;-71
2024/03/18 05:44:31;;;;;;;3.33;3.03;;;8.70;99.90;;;;;;5030267;28;20697;-71
2024/03/18 05:46:58;;;;;;;4.82;3.20;;;8.80;99.90;;;;;;5030314;28;20667;-71
2024/03/18 05:49:27;;;;;;;3.28;2.85;;;8.80;99.90;;;;;;5030002;28;20208;-71
2024/03/18 05:51:54;;;;;;;4.38;3.35;;;8.80;99.90;;;;;;5021420;28;20237;-71
2024/03/18 05:54:21;;;;;;;4.38;3.42;;;8.80;99.90;;;;;;5033111;28;20204;-71
2024/03/18 05:56:47;;;;;;;3.55;3.25;;;8.80;99.90;;;;;;5033572;28;20615;-72
2024/03/18 05:59:14;;;;;;;5.03;3.95;;;8.80;99.90;;;;;;5033675;28;20205;-72
2024/03/18 06:01:42;;;;;;;4.97;3.35;;;8.80;99.90;;;;;;5033081;28;20248;-71
2024/03/18 06:04:10;;;;;;;4.13;3.65;;;8.90;99.90;;;;;;5033699;28;20209;-72
2024/03/18 06:06:38;;;;;;;3.60;3.30;;;8.90;99.90;;;;;;5034012;28;20216;-72
2024/03/18 06:09:05;;;;;;;3.90;3.60;;;8.90;99.90;;;;;;5033329;28;20201;-72
2024/03/18 06:11:33;;;;;;;4.80;3.65;;;8.80;99.90;;;;;;5033023;28;20228;-72
2024/03/18 06:14:00;;;;;;;5.40;2.90;;;8.80;99.90;;;;;;5033274;28;20213;-72
2024/03/18 06:16:27;;;;;;;4.72;3.72;;;8.90;99.90;;;;;;5033499;28;20217;-71
2024/03/18 06:18:54;;;;;;;4.97;3.80;;;8.90;99.90;;;;;;5027008;28;20668;-71
2024/03/18 06:21:27;;;;;;;3.88;3.15;;;8.90;99.90;;;;;;5032880;28;20596;-71
2024/03/18 06:23:59;;;;;;;3.40;3.03;;;8.90;99.90;;;;;;5025063;28;20674;-71
2024/03/18 06:26:24;;;;;;;4.43;3.00;;;9.00;99.90;;;;;;5033578;28;20626;-71
2024/03/18 06:28:51;;;;;;;3.63;3.20;;;9.00;99.90;;;;;;5032957;28;20197;-71
2024/03/18 06:31:18;;;;;;;5.25;4.07;;;9.00;99.90;;;;;;5032622;28;20473;-71
2024/03/18 06:33:47;;;;;;;4.38;3.65;;;9.00;99.90;;;;;;5033254;28;20224;-71
2024/03/18 06:36:14;;;;;;;3.25;2.30;;;9.00;99.90;;;;;;5033354;28;20296;-71
2024/03/18 06:38:41;;;;;;;4.22;3.47;;;9.00;99.90;;;;;;5033114;28;20213;-71
2024/03/18 06:41:09;;;;;;;3.95;2.92;;;9.00;99.90;;;;;;5032046;28;20586;-71
2024/03/18 06:43:36;;;;;;;4.32;3.75;;;9.00;99.90;;;;;;5033072;28;20205;-72
2024/03/18 06:46:05;;;;;;;3.75;3.40;;;9.00;99.90;;;;;;5032660;28;20623;-71
2024/03/18 06:48:32;;;;;;;3.60;2.90;;;9.00;99.90;;;;;;5033024;28;20616;-72
2024/03/18 06:50:59;;;;;;;3.75;3.28;;;9.10;99.90;;;;;;5032226;28;20209;-71
2024/03/18 06:53:25;;;;;;;4.18;3.35;;;9.10;99.90;;;;;;5032898;28;20217;-71
2024/03/18 06:55:51;;;;;;;4.57;3.70;;;9.10;99.90;;;;;;5032639;28;20208;-71
2024/03/18 06:58:24;;;;;;;3.90;2.92;;;9.10;99.90;;;;;;5032592;28;20201;-72
2024/03/18 07:00:51;;;;;;;4.30;3.50;;;9.20;99.90;;;;;;5032123;28;20226;-72
2024/03/18 07:03:18;;;;;;;6.28;3.60;;;9.20;99.90;;;;;;5032375;28;20225;-72
2024/03/18 07:05:44;;;;;;;3.70;3.30;;;9.30;99.90;;;;;;5031366;28;20207;-72
2024/03/18 07:08:12;;;;;;;6.50;3.47;;;9.30;99.90;;;;;;5032165;28;20204;-72
2024/03/18 07:10:39;;;;;;;4.28;3.08;;;9.40;99.90;;;;;;5032226;28;20208;-71
2024/03/18 07:13:05;;;;;;;7.28;3.75;;;9.40;99.90;;;;;;5031694;28;20628;-72
2024/03/18 07:15:34;;;;;;;4.30;2.80;;;9.40;99.90;;;;;;5032521;28;20732;-72
2024/03/18 07:18:00;;;;;;;3.58;3.28;;;9.40;99.90;;;;;;5032438;28;20205;-72
2024/03/18 07:20:27;;;;;;;6.75;3.83;;;9.40;99.90;;;;;;5032080;28;20236;-72
2024/03/18 07:22:55;;;;;;;3.20;2.90;;;9.40;99.90;;;;;;5026539;28;20229;-72
2024/03/18 07:25:22;;;;;;;3.92;3.53;;;9.40;99.90;;;;;;5032182;28;20213;-72
2024/03/18 07:27:48;;;;;;;4.72;3.10;;;9.40;99.90;;;;;;5031883;28;20222;-72
2024/03/18 07:30:17;;;;;;;3.50;3.00;;;9.40;99.90;;;;;;5031609;28;20198;-72
2024/03/18 07:32:44;;;;;;;4.03;3.30;;;9.40;99.90;;;;;;5031642;28;20276;-72
2024/03/18 07:35:12;;;;;;;5.38;3.65;;;9.40;99.90;;;;;;5031771;28;20243;-72
2024/03/18 07:37:39;;;;;;;4.85;3.90;;;9.50;99.90;;;;;;5032224;28;20292;-72
2024/03/18 07:40:08;;;;;;;5.43;3.65;;;9.50;99.90;;;;;;5031480;28;20217;-72
2024/03/18 07:42:35;;;;;;;3.70;3.22;;;9.50;99.90;;;;;;5031619;28;20221;-72
2024/03/18 07:45:02;;;;;;;3.67;3.10;;;9.50;99.90;;;;;;5031599;28;20205;-72
2024/03/18 07:47:29;;;;;;;4.30;3.13;;;9.50;99.90;;;;;;5031821;28;20213;-72
2024/03/18 07:49:57;;;;;;;4.40;2.92;;;9.50;99.90;;;;;;5031367;28;20218;-71
2024/03/18 07:52:23;;;;;;;3.13;2.83;;;9.40;99.90;;;;;;5031331;28;20228;-71
2024/03/18 07:54:50;;;;;;;3.22;2.60;;;9.40;99.90;;;;;;5031751;28;20206;-72
2024/03/18 07:57:17;;;;;;;3.97;3.40;;;9.30;99.90;;;;;;5031329;28;20210;-71
2024/03/18 07:59:43;;;;;;;4.20;2.58;;;9.30;99.90;;;;;;5031533;28;20586;-72
2024/03/18 08:02:10;;;;;;;3.35;3.00;;;9.30;99.90;;;;;;5030788;28;20240;-72
2024/03/18 08:04:37;;;;;;;3.13;2.65;;;9.30;99.90;;;;;;5031500;28;20212;-72
2024/03/18 08:07:05;;;;;;;5.70;3.53;;;9.30;99.90;;;;;;5031224;28;20674;-72
2024/03/18 08:09:31;;;;;;;5.57;2.65;;;9.40;99.90;;;;;;5031204;28;20201;-72
2024/03/18 08:11:58;;;;;;;3.70;3.00;;;9.40;99.90;;;;;;5030730;28;20229;-72
2024/03/18 08:14:25;;;;;;;3.33;2.92;;;9.50;99.90;;;;;;5030525;28;20205;-72
2024/03/18 08:16:51;;;;;;;4.63;3.05;;;9.50;99.90;;;;;;5030704;28;20709;-72
2024/03/18 08:19:20;;;;;;;3.78;3.22;;;9.50;99.90;;;;;;5030976;28;20585;-72
2024/03/18 08:21:46;;;;;;;5.97;3.15;;;9.60;99.90;;;;;;5030805;28;20300;-72
2024/03/18 08:24:14;;;;;;;5.05;3.38;;;9.50;99.90;;;;;;5030985;28;20206;-72
2024/03/18 08:26:41;;;;;;;2.80;2.60;;;9.50;99.90;;;;;;5031294;28;20209;-72
2024/03/18 08:29:08;;;;;;;5.30;3.78;;;9.50;99.90;;;;;;5030776;28;20213;-72
2024/03/18 08:31:40;;;;;;;6.68;3.10;;;9.40;99.90;;;;;;5030610;28;20638;-72
2024/03/18 08:34:06;;;;;;;2.85;2.65;;;9.50;99.90;;;;;;5030752;28;20240;-72
2024/03/18 08:36:35;;;;;;;5.03;3.30;;;9.50;99.90;;;;;;5031129;28;20213;-71
2024/03/18 08:39:01;;;;;;;5.40;3.33;;;9.60;99.90;;;;;;5030655;28;20202;-72
2024/03/18 08:41:29;;;;;;;7.97;3.63;;;9.60;99.90;;;;;;5030354;28;20601;-72
2024/03/18 08:43:56;;;;;;;6.95;3.25;;;9.60;99.90;;;;;;5030988;28;20213;-72
2024/03/18 08:46:23;;;;;;;4.47;3.00;;;9.70;99.90;;;;;;5030676;28;20201;-72
2024/03/18 08:48:49;;;;;;;3.58;2.67;;;9.60;99.90;;;;;;5030890;28;20602;-71
2024/03/18 08:51:16;;;;;;;3.03;2.83;;;9.60;99.90;;;;;;5030019;28;20681;-72
2024/03/18 08:53:43;;;;;;;2.88;2.58;;;9.70;99.90;;;;;;5030904;28;20217;-72
2024/03/18 08:56:11;;;;;;;3.88;2.90;;;9.70;99.90;;;;;;5030502;28;20260;-72
2024/03/18 08:58:39;;;;;;;6.80;4.13;;;9.70;99.90;;;;;;5030827;28;20210;-72
2024/03/18 09:01:08;;;;;;;2.95;2.33;;;9.70;99.90;;;;;;5029880;28;20222;-72
2024/03/18 09:03:35;;;;;;;9.93;3.85;;;9.80;99.90;;;;;;5030740;28;20296;-72
2024/03/18 09:06:03;;;;;;;5.95;2.40;;;9.80;99.90;;;;;;5030689;28;20229;-72
2024/03/18 09:08:30;;;;;;;2.63;2.42;;;9.90;99.90;;;;;;5024532;28;20612;-72
2024/03/18 09:10:57;;;;;;;5.50;2.92;;;10.00;99.90;;;;;;5029838;28;20202;-72
2024/03/18 09:13:24;;;;;;;3.35;2.58;;;10.10;99.90;;;;;;5029743;28;20225;-72
2024/03/18 09:15:52;;;;;;;3.65;2.70;;;10.10;99.90;;;;;;5030104;28;20206;-72
2024/03/18 09:18:19;;;;;;;5.90;3.28;;;10.20;99.90;;;;;;5029977;28;20210;-72
2024/03/18 09:20:48;;;;;;;3.22;2.83;;;10.20;99.90;;;;;;5030219;28;20218;-72
2024/03/18 09:23:15;;;;;;;9.57;2.78;;;10.30;99.90;;;;;;5017166;28;20677;-72
2024/03/18 09:25:42;;;;;;;2.90;2.67;;;10.40;99.90;;;;;;5034655;28;20725;-72
2024/03/18 09:28:09;;;;;;;2.92;2.63;;;10.50;99.90;;;;;;5042569;28;20707;-72
2024/03/18 09:30:36;;;;;;;7.45;3.53;;;10.40;99.90;;;;;;5043131;28;20268;-72
2024/03/18 09:33:04;;;;;;;4.55;3.50;;;10.50;99.90;;;;;;5038395;28;20229;-72
2024/03/18 09:35:31;;;;;;;5.88;4.22;;;10.60;99.90;;;;;;5046748;28;20293;-72
2024/03/18 09:37:58;;;;;;;7.22;2.65;;;10.70;99.90;;;;;;5047055;28;20206;-72
2024/03/18 09:40:29;;;;;;;5.32;2.75;;;10.70;99.90;;;;;;5038548;28;20214;-71
2024/03/18 09:42:55;;;;;;;3.72;2.50;;;10.80;99.90;;;;;;5029410;28;20232;-72
2024/03/18 09:45:23;;;;;;;3.70;2.90;;;10.90;99.90;;;;;;5038670;28;20213;-72
2024/03/18 09:47:50;;;;;;;5.72;3.22;;;11.00;99.90;;;;;;5038797;28;20202;-72
2024/03/18 09:50:18;;;;;;;4.72;3.33;;;11.00;99.90;;;;;;5042984;28;20248;-72
2024/03/18 09:52:46;;;;;;;3.70;3.33;;;11.00;99.90;;;;;;5045907;28;20610;-72
2024/03/18 09:55:21;;;;;;;4.20;3.83;;;11.00;99.90;;;;;;5035414;28;20210;-72
2024/03/18 09:57:48;;;;;;;4.05;3.42;;;11.00;99.90;;;;;;5046744;28;20632;-72
2024/03/18 10:00:16;;;;;;;4.97;3.50;;;11.00;99.90;;;;;;5040584;28;20259;-72
2024/03/18 10:02:43;;;;;;;5.63;3.42;;;11.00;99.90;;;;;;5045408;28;20233;-72
2024/03/18 10:05:10;;;;;;;3.35;2.85;;;11.10;99.90;;;;;;5041702;28;20675;-72
2024/03/18 10:07:40;;;;;;;4.28;3.30;;;11.10;99.90;;;;;;5045464;28;20206;-72
2024/03/18 10:10:15;;;;;;;5.15;3.60;;;11.10;99.90;;;;;;5046933;28;20213;-72
2024/03/18 10:12:43;;;;;;;3.60;3.08;;;11.10;99.90;;;;;;5044108;28;20585;-72
2024/03/18 10:15:11;;;;;;;5.05;3.63;;;11.10;99.90;;;;;;5043867;28;20263;-71
2024/03/18 10:17:38;;;;;;;4.50;3.45;;;11.10;99.90;;;;;;5039990;28;20205;-72
2024/03/18 10:20:19;;;;;;;3.47;3.15;;;11.00;99.90;;;;;;5037239;28;20209;-71
2024/03/18 10:22:49;;;;;;;7.82;3.10;;;10.90;99.90;;;;;;5043190;28;20279;-72
2024/03/18 10:25:18;;;;;;;6.50;3.92;;;10.90;99.90;;;;;;5041426;28;20205;-72
2024/03/18 10:27:45;;;;;;;3.60;3.30;;;10.90;99.90;;;;;;5040992;28;20236;-72
2024/03/18 10:30:14;;;;;;;5.78;3.17;;;11.00;99.90;;;;;;5046867;28;20214;-72
2024/03/18 10:32:42;;;;;;;4.38;3.30;;;10.90;99.90;;;;;;5039867;28;20218;-72
2024/03/18 10:35:18;;;;;;;7.72;2.95;;;10.90;99.90;;;;;;5042242;28;20214;-72
2024/03/18 10:37:55;;;;;;;3.97;3.25;;;11.00;99.90;;;;;;5040904;28;20209;-71
2024/03/18 10:40:34;;;;;;;4.30;3.13;;;11.10;99.90;;;;;;5039531;28;20553;-72
2024/03/18 10:43:03;;;;;;;4.15;2.97;;;11.20;99.90;;;;;;5024109;28;20263;-72
2024/03/18 10:45:31;;;;;;;7.95;3.08;;;11.20;99.90;;;;;;5036563;28;20221;-72
2024/03/18 10:48:03;;;;;;;3.35;2.88;;;11.30;99.90;;;;;;5043622;28;20586;-72
2024/03/18 10:50:30;;;;;;;3.33;3.03;;;11.30;99.90;;;;;;5037491;28;20206;-72
2024/03/18 10:52:59;;;;;;;3.33;3.05;;;11.40;99.90;;;;;;5041443;28;20226;-72
2024/03/18 10:55:29;;;;;;;3.58;3.22;;;11.40;99.90;;;;;;5026659;28;20205;-71
2024/03/18 10:57:58;;;;;;;5.32;2.95;;;11.40;99.90;;;;;;5024644;28;20313;-72
2024/03/18 11:00:25;;;;;;;5.15;3.25;;;11.40;99.90;;;;;;5031882;28;20224;-70
2024/03/18 11:02:57;;;;;;;3.92;3.30;;;11.40;99.90;;;;;;5030779;28;20237;-71
2024/03/18 11:05:26;;;;;;;3.28;2.97;;;11.40;99.90;;;;;;5030175;28;20650;-70
2024/03/18 11:08:00;;;;;;;3.40;3.10;;;11.50;99.90;;;;;;5030654;28;20206;-70
2024/03/18 11:10:31;;;;;;;4.50;2.72;;;11.60;99.90;;;;;;5030910;28;20209;-70
2024/03/18 11:13:08;;;;;;;3.50;3.17;;;11.60;99.90;;;;;;5024609;28;20227;-70
2024/03/18 11:15:35;;;;;;;3.63;2.63;;;11.60;99.90;;;;;;5032097;28;20229;-70
2024/03/18 11:18:05;;;;;;;5.20;2.90;;;11.70;99.90;;;;;;5030142;28;20209;-70
2024/03/18 11:20:42;;;;;;;2.53;2.33;;;11.70;99.90;;;;;;5031640;28;20663;-70
2024/03/18 11:23:16;;;;;;;6.38;3.22;;;11.70;99.90;;;;;;5031384;28;20230;-71
2024/03/18 11:25:43;;;;;;;4.38;2.70;;;11.70;99.90;;;;;;5031177;28;20586;-70
2024/03/18 11:28:10;;;;;;;4.27;3.17;;;11.80;99.90;;;;;;5032167;28;20217;-70
2024/03/18 11:30:37;;;;;;;3.23;2.90;;;11.80;99.90;;;;;;5031534;28;20471;-70
2024/03/18 11:33:10;;;;;;;6.88;3.20;;;11.80;99.90;;;;;;5031859;28;20500;-71
2024/03/18 11:35:38;;;;;;;4.35;2.78;;;11.80;99.90;;;;;;5031618;28;20220;-71
2024/03/18 11:38:05;;;;;;;4.82;2.80;;;11.80;99.90;;;;;;5031783;28;20268;-71
2024/03/18 11:40:37;;;;;;;5.35;2.97;;;11.70;99.90;;;;;;5031073;28;20210;-71
2024/03/18 11:43:04;;;;;;;3.28;2.97;;;11.60;99.90;;;;;;5031516;28;20281;-71
2024/03/18 11:45:31;;;;;;;4.25;3.38;;;11.60;99.90;;;;;;5031615;28;20238;-71
2024/03/18 11:48:04;;;;;;;3.10;2.80;;;11.60;99.90;;;;;;5032022;28;20202;-71
2024/03/18 11:50:33;;;;;;;2.88;2.67;;;11.60;99.90;;;;;;5029563;28;20210;-72
2024/03/18 11:53:01;;;;;;;3.22;2.78;;;11.60;99.90;;;;;;5031287;28;20229;-71
2024/03/18 11:55:28;;;;;;;3.63;2.95;;;11.60;99.90;;;;;;5031310;28;20205;-71
2024/03/18 11:57:57;;;;;;;6.00;2.47;;;11.60;99.90;;;;;;5023703;28;20202;-72
2024/03/18 12:00:23;;;;;;;4.35;2.45;;;11.60;99.90;;;;;;5030081;28;20206;-72
2024/03/18 12:02:50;;;;;;;4.13;2.63;;;11.60;99.90;;;;;;5030979;28;20226;-72
2024/03/18 12:05:17;;;;;;;2.90;2.60;;;11.60;99.90;;;;;;5031620;28;20560;-72
2024/03/18 12:07:44;;;;;;;4.40;2.50;;;11.50;99.90;;;;;;5031110;28;20898;-72
2024/03/18 12:10:12;;;;;;;2.95;2.75;;;11.40;99.90;;;;;;5031486;28;20217;-71
2024/03/18 12:12:40;;;;;;;4.22;3.13;;;11.30;99.90;;;;;;5028469;28;20225;-71
2024/03/18 12:15:10;;;;;;;3.85;2.97;;;11.30;99.90;;;;;;5024464;28;20199;-71
2024/03/18 12:17:37;;;;;;;4.80;2.90;;;11.20;99.90;;;;;;5028840;28;20206;-71
2024/03/18 12:20:06;;;;;;;3.40;2.33;;;11.20;99.90;;;;;;5030705;28;20206;-71
2024/03/18 12:22:34;;;;;;;2.83;2.63;;;11.10;99.90;;;;;;5030044;28;20221;-71
2024/03/18 12:30:35;;;;;;;3.10;2.40;;;10.90;99.90;;;;;;5025831;28;20586;-72
2024/03/18 12:33:05;;;;;;;2.60;2.40;;;10.90;99.90;;;;;;5023716;28;20221;-72
2024/03/18 12:35:33;;;;;;;3.35;2.50;;;10.90;99.90;;;;;;5030945;28;20206;-72
2024/03/18 12:37:59;;;;;;;5.05;2.63;;;10.80;99.90;;;;;;5030609;28;20229;-72
2024/03/18 12:40:26;;;;;;;4.25;3.50;;;10.80;99.90;;;;;;5030040;28;20216;-72
2024/03/18 12:42:53;;;;;;;3.10;2.80;;;10.70;99.90;;;;;;5028861;28;20248;-72
2024/03/18 12:45:20;;;;;;;4.38;3.60;;;10.70;99.90;;;;;;5030919;28;20218;-72
2024/03/18 12:47:52;;;;;;;3.88;3.33;;;10.80;99.90;;;;;;5030734;28;20267;-73
2024/03/18 12:50:19;;;;;;;2.53;2.30;;;10.80;99.90;;;;;;5030460;28;20210;-72
2024/03/18 12:52:46;;;;;;;3.35;3.05;;;10.80;99.90;;;;;;5029706;28;20593;-72
2024/03/18 12:55:14;;;;;;;2.97;2.53;;;10.80;99.90;;;;;;5025643;28;21018;-72
2024/03/18 12:57:43;;;;;;;2.88;2.67;;;10.80;99.90;;;;;;5034976;28;20252;-72
2024/03/18 13:00:11;;;;;;;2.78;2.33;;;11.00;99.90;;;;;;5030373;28;20205;-72